Latest Weather Observations for Mount Lofty

IDS60901

Issued at 5:01 pm CST Friday 17 August 2018 (issued every 10 minutes, with the page automatically refreshed every 10 minutes)

About weather observations | Map of Adelaide area stations | Latest observations for Adelaide area | Other Formats
Station Details ID: 023842 Name: MOUNT LOFTY Lat: -34.98 Lon: 138.71 Height: 685.0 m
Data from the previous 72 hours. | See also: Recent months at Mount Lofty
Date/Time
CST
Temp
°C
App
Temp
°C
Dew
Point
°C
Rel
Hum
%
Delta-T
°C
Wind Press
QNH
hPa
Press
MSL
hPa
Rain since
9am
mm
Dir  Spd
km/h
Gust
km/h
Spd
kts
Gust
kts
17/05:00pm 9.3 4.2 6.2 81 1.5 WNW 22 37 12 20 - - 0.0
17/04:30pm 9.2 4.6 6.6 84 1.3 WNW 20 37 11 20 - - 0.0
17/04:00pm 9.0 3.0 7.0 87 1.0 WNW 28 50 15 27 - - 0.0
17/03:52pm 8.8 2.7 6.8 87 1.0 WNW 28 50 15 27 - - 0.0
17/03:30pm 8.9 3.7 7.2 89 0.8 WNW 24 46 13 25 - - 0.0
17/03:02pm 8.9 2.9 7.2 89 0.8 WNW 28 46 15 25 - - 0.0
17/03:00pm 8.9 3.3 7.2 89 0.8 WNW 26 46 14 25 - - 0.0
17/02:30pm 9.1 3.4 8.2 94 0.5 WNW 28 54 15 29 - - 0.0
17/02:21pm 8.9 3.2 8.5 97 0.2 WNW 28 54 15 29 - - 0.0
17/02:00pm 7.8 3.0 7.5 98 0.1 WNW 22 44 12 24 - - 0.0
17/01:30pm 7.7 1.8 7.4 98 0.1 WNW 28 48 15 26 - - 0.0
17/01:27pm 7.7 1.8 7.4 98 0.1 WNW 28 48 15 26 - - 0.0
17/01:00pm 7.6 2.8 7.3 98 0.1 WNW 22 41 12 22 - - 0.0
17/12:30pm 7.5 2.3 7.2 98 0.1 WNW 24 43 13 23 - - 0.0
17/12:00pm 7.4 3.5 7.1 98 0.1 WNW 17 35 9 19 - - 0.0
17/11:30am 7.1 2.8 6.8 98 0.1 NW 19 35 10 19 - - 0.0
17/11:00am 6.5 2.4 6.2 98 0.1 WNW 17 32 9 17 - - 0.0
17/10:30am 6.1 1.5 5.8 98 0.1 NW 19 28 10 15 - - 0.0
17/10:00am 5.9 1.3 5.6 98 0.1 NW 19 33 10 18 - - 0.0
17/09:30am 5.4 1.1 5.1 98 0.1 NW 17 28 9 15 - - 0.0
17/09:00am 5.0 0.6 4.7 98 0.1 NW 17 28 9 15 - - 2.2
17/08:30am 5.0 0.6 4.7 98 0.1 NW 17 32 9 17 - - 2.2
17/08:00am 5.0 0.6 4.7 98 0.1 NW 17 28 9 15 - - 2.0
17/07:30am 4.9 0.1 4.6 98 0.1 NW 19 30 10 16 - - 1.8
17/07:00am 4.9 0.5 4.6 98 0.1 NW 17 28 9 15 - - 1.8
17/06:30am 5.0 0.6 4.7 98 0.1 NW 17 30 9 16 - - 1.8
17/06:00am 5.3 0.9 5.0 98 0.1 NW 17 32 9 17 - - 1.8
17/05:30am 5.4 1.1 5.1 98 0.1 NW 17 28 9 15 - - 1.8
17/05:00am 5.6 1.3 5.3 98 0.1 NW 17 30 9 16 - - 1.8
17/04:30am 5.4 0.7 5.1 98 0.1 NW 19 32 10 17 - - 1.8
17/04:00am 5.5 1.2 5.2 98 0.1 WNW 17 33 9 18 - - 1.8
17/03:30am 5.3 0.4 5.0 98 0.1 WNW 20 35 11 19 - - 1.8
17/03:00am 5.2 0.3 4.9 98 0.1 WNW 20 32 11 17 - - 1.8
17/02:30am 5.3 0.6 5.0 98 0.1 WNW 19 32 10 17 - - 1.8
17/02:00am 5.2 0.4 4.9 98 0.1 WNW 19 33 10 18 - - 1.8
17/01:30am 5.2 0.8 4.9 98 0.1 WNW 17 28 9 15 - - 1.8
17/01:00am 5.3 0.9 5.0 98 0.1 WNW 17 28 9 15 - - 1.8
17/12:30am 5.1 1.1 4.8 98 0.1 WNW 15 26 8 14 - - 1.8
17/12:00am 5.0 0.6 4.7 98 0.1 WNW 17 28 9 15 - - 1.8
 
Date/Time
CST
Temp
°C
App
Temp
°C
Dew
Point
°C
Rel
Hum
%
Delta-T
°C
Wind Press
QNH
hPa
Press
MSL
hPa
Rain since
9am
mm
Dir  Spd
km/h
Gust
km/h
Spd
kts
Gust
kts
16/11:30pm 5.2 0.8 4.9 98 0.1 WNW 17 28 9 15 - - 1.8
16/11:00pm 5.4 1.1 5.1 98 0.1 WNW 17 28 9 15 - - 1.8
16/10:30pm 5.3 0.9 4.9 97 0.2 WNW 17 26 9 14 - - 1.8
16/10:00pm 5.2 1.2 4.8 97 0.2 WNW 15 22 8 12 - - 1.8
16/09:30pm 5.1 1.1 4.7 97 0.2 WNW 15 24 8 13 - - 1.8
16/09:00pm 4.8 1.1 4.4 97 0.2 WNW 13 20 7 11 - - 1.8
16/08:30pm 4.5 1.1 4.1 97 0.2 WNW 11 17 6 9 - - 1.8
16/08:00pm 4.8 1.4 4.2 96 0.3 WNW 11 15 6 8 - - 1.8
16/07:30pm 5.1 2.2 4.5 96 0.3 WNW 9 17 5 9 - - 1.6
16/07:00pm 5.1 2.6 4.5 96 0.3 WNW 7 13 4 7 - - 1.6
16/06:30pm 5.0 2.6 4.3 95 0.3 WNW 6 11 3 6 - - 1.6
16/06:00pm 5.2 2.2 4.3 94 0.4 WNW 9 15 5 8 - - 1.6
16/05:30pm 5.3 2.8 4.0 91 0.6 W 6 11 3 6 - - 1.6
16/05:00pm 5.5 2.9 4.0 90 0.7 WNW 7 17 4 9 - - 1.6
16/04:30pm 5.8 3.2 4.1 89 0.8 WNW 7 13 4 7 - - 1.6
16/04:00pm 5.8 2.9 4.8 93 0.5 WNW 9 15 5 8 - - 1.6
16/03:30pm 5.7 2.8 4.8 94 0.4 WNW 9 17 5 9 - - 1.6
16/03:00pm 6.1 3.2 4.7 91 0.6 WNW 9 20 5 11 - - 1.6
16/02:30pm 6.7 4.1 4.0 83 1.2 W 7 15 4 8 - - 1.6
16/02:00pm 7.0 3.5 3.4 78 1.6 WNW 11 19 6 10 - - 1.6
16/01:30pm 7.1 4.5 4.4 83 1.2 W 7 15 4 8 - - 1.6
16/01:00pm 7.3 4.0 4.6 83 1.2 WNW 11 22 6 12 - - 1.6
16/12:30pm 8.2 5.3 4.4 77 1.7 WNW 9 19 5 10 - - 1.6
16/12:00pm 7.3 4.4 4.8 84 1.1 W 9 20 5 11 - - 1.6
16/11:30am 6.1 3.8 4.9 92 0.5 W 6 11 3 6 - - 1.6
16/11:00am 6.0 3.8 5.1 94 0.4 W 6 11 3 6 - - 1.6
16/10:30am 6.2 3.9 5.8 97 0.2 W 7 13 4 7 - - 1.6
16/10:00am 5.3 3.0 4.9 97 0.2 W 6 11 3 6 - - 1.6
16/09:30am 4.8 2.2 4.4 97 0.2 W 7 17 4 9 - - 1.0
16/09:00am 5.1 2.2 4.8 98 0.1 WNW 9 19 5 10 - - 10.6
16/08:30am 4.7 2.3 4.4 98 0.1 W 6 11 3 6 - - 10.6
16/08:00am 4.3 1.8 4.0 98 0.1 W 6 9 3 5 - - 10.6
16/07:30am 4.4 1.8 4.1 98 0.1 W 7 26 4 14 - - 9.8
16/07:00am 4.9 2.6 4.6 98 0.1 W 6 9 3 5 - - 9.4
16/06:30am 4.9 2.4 4.6 98 0.1 W 7 20 4 11 - - 9.4
16/06:00am 4.7 2.3 4.4 98 0.1 W 6 9 3 5 - - 8.6
16/05:30am 5.0 2.7 4.7 98 0.1 W 6 11 3 6 - - 8.6
16/05:00am 4.8 2.4 4.5 98 0.1 W 6 11 3 6 - - 8.6
16/04:30am 4.7 2.1 4.4 98 0.1 W 7 15 4 8 - - 8.6
16/04:00am 4.8 2.3 4.5 98 0.1 W 7 11 4 6 - - 8.0
16/03:30am 4.4 1.8 4.1 98 0.1 W 7 15 4 8 - - 8.0
16/03:00am 4.3 1.7 4.0 98 0.1 W 7 15 4 8 - - 8.0
16/02:30am 4.9 2.0 4.6 98 0.1 W 9 13 5 7 - - 8.0
16/02:00am 4.7 1.8 4.4 98 0.1 W 9 17 5 9 - - 8.0
16/01:30am 4.5 1.9 4.2 98 0.1 W 7 13 4 7 - - 7.0
16/01:00am 4.4 1.4 4.1 98 0.1 W 9 15 5 8 - - 7.0
16/12:30am 4.8 1.5 4.5 98 0.1 W 11 24 6 13 - - 6.8
16/12:00am 4.8 2.3 4.5 98 0.1 W 7 15 4 8 - - 5.8
 
Date/Time
CST
Temp
°C
App
Temp
°C
Dew
Point
°C
Rel
Hum
%
Delta-T
°C
Wind Press
QNH
hPa
Press
MSL
hPa
Rain since
9am
mm
Dir  Spd
km/h
Gust
km/h
Spd
kts
Gust
kts
15/11:30pm 4.7 1.4 4.4 98 0.1 W 11 20 6 11 - - 5.8
15/11:00pm 5.1 2.2 4.8 98 0.1 W 9 15 5 8 - - 5.8
15/10:30pm 5.5 2.7 5.2 98 0.1 W 9 17 5 9 - - 5.8
15/10:00pm 5.3 2.1 5.0 98 0.1 W 11 20 6 11 - - 5.8
15/09:30pm 5.8 1.9 5.5 98 0.1 W 15 24 8 13 - - 5.6
15/09:00pm 5.9 2.8 5.6 98 0.1 W 11 22 6 12 - - 5.6
15/08:30pm 6.1 2.7 5.8 98 0.1 W 13 22 7 12 - - 5.6
15/08:00pm 5.8 2.3 5.5 98 0.1 W 13 30 7 16 - - 5.6
15/07:30pm 6.0 2.6 5.7 98 0.1 W 13 30 7 16 - - 5.6
15/07:00pm 5.5 1.6 5.2 98 0.1 W 15 28 8 15 - - 5.6
15/06:30pm 5.9 2.1 5.6 98 0.1 W 15 35 8 19 - - 5.6
15/06:00pm 6.1 1.9 5.8 98 0.1 W 17 30 9 16 - - 5.6
15/05:30pm 6.3 2.9 6.0 98 0.1 W 13 22 7 12 - - 5.6
15/05:00pm 6.3 1.8 6.0 98 0.1 W 19 35 10 19 - - 5.4
15/04:30pm 7.3 3.8 7.0 98 0.1 W 15 33 8 18 - - 4.6
15/04:00pm 7.2 3.3 6.9 98 0.1 W 17 32 9 17 - - 4.6
15/03:30pm 6.8 2.4 6.4 97 0.2 W 19 39 10 21 - - 4.6
15/03:00pm 6.9 2.2 6.0 94 0.4 W 20 33 11 18 - - 4.2
15/02:30pm 7.1 2.5 6.4 95 0.3 W 20 37 11 20 - - 4.2
15/02:00pm 7.6 3.1 6.9 95 0.3 W 20 46 11 25 - - 4.2
15/01:30pm 8.1 3.4 7.8 98 0.1 WNW 22 43 12 23 - - 4.2
15/01:06pm 8.0 2.1 7.7 98 0.1 W 28 52 15 28 - - 4.2
15/01:00pm 8.3 2.9 8.0 98 0.1 W 26 52 14 28 - - 4.2
15/12:30pm 8.1 3.0 7.8 98 0.1 WNW 24 41 13 22 - - 4.2
15/12:00pm 7.2 2.3 6.9 98 0.1 W 22 43 12 23 - - 4.0
15/11:30am 7.7 3.3 7.3 97 0.2 W 20 35 11 19 - - 3.0
15/11:00am 8.3 4.0 7.9 97 0.2 W 20 37 11 20 - - 1.8
15/10:30am 8.4 3.2 7.3 93 0.5 WNW 24 46 13 25 - - 0.0
15/10:00am 8.4 3.0 8.1 98 0.1 WNW 26 44 14 24 - - 0.0
15/09:30am 8.2 3.9 7.8 97 0.2 WNW 20 39 11 21 - - 0.0
15/09:00am 7.9 3.5 7.3 96 0.3 WNW 20 37 11 20 - - 0.0
15/08:30am 7.8 3.3 6.9 94 0.4 WNW 20 37 11 20 - - 0.0
15/08:00am 7.3 2.8 5.9 91 0.7 WNW 19 35 10 19 - - 0.0
15/07:30am 7.3 2.7 5.6 89 0.8 WNW 19 32 10 17 - - 0.0
15/07:00am 7.2 2.4 4.5 83 1.2 WNW 19 30 10 16 - - 0.0
15/06:30am 7.5 2.4 3.9 78 1.6 WNW 20 35 11 19 - - 0.0
15/06:00am 7.6 2.4 3.8 77 1.7 WNW 20 33 11 18 - - 0.0
15/05:30am 7.8 2.6 3.8 76 1.8 WNW 20 33 11 18 - - 0.0
15/05:00am 8.0 2.8 3.8 75 1.9 NW 20 33 11 18 - - 0.0
15/04:30am 8.0 3.0 3.7 74 1.9 NW 19 32 10 17 - - 0.0
15/04:00am 8.3 2.8 3.8 73 2.0 WNW 22 35 12 19 - - 0.0
15/03:30am 8.5 2.9 3.6 71 2.2 WNW 22 39 12 21 - - 0.0
15/03:00am 8.8 3.2 3.2 68 2.5 WNW 22 37 12 20 - - 0.0
15/02:30am 9.1 2.9 2.4 63 2.9 WNW 24 41 13 22 - - 0.0
15/02:00am 9.4 2.8 1.8 59 3.3 WNW 26 48 14 26 - - 0.0
15/01:30am 9.4 2.3 1.3 57 3.5 WNW 28 43 15 23 - - 0.0
15/01:00am 9.4 1.9 1.1 56 3.6 WNW 30 54 16 29 - - 0.0
15/12:32am 10.1 2.0 0.7 52 4.0 WNW 33 54 18 29 - - 0.0
15/12:30am 9.8 1.3 0.7 53 3.9 WNW 35 52 19 28 - - 0.0
15/12:00am 9.8 1.7 0.7 53 3.9 NW 33 61 18 33 - - 0.0
 
Date/Time
CST
Temp
°C
App
Temp
°C
Dew
Point
°C
Rel
Hum
%
Delta-T
°C
Wind Press
QNH
hPa
Press
MSL
hPa
Rain since
9am
mm
Dir  Spd
km/h
Gust
km/h
Spd
kts
Gust
kts
14/11:30pm 10.3 2.3 0.3 50 4.2 NW 32 57 17 31 - - 0.0
14/11:00pm 10.3 2.1 0.1 49 4.3 NW 33 57 18 31 - - 0.0
14/10:30pm 10.3 2.3 0.6 51 4.1 NW 32 57 17 31 - - 0.0
14/10:00pm 10.8 2.2 0.5 49 4.4 NW 35 59 19 32 - - 0.0
14/09:30pm 10.4 2.3 1.0 52 4.0 NW 33 56 18 30 - - 0.0
14/09:00pm 10.2 2.3 1.3 54 3.9 NW 32 54 17 29 - - 0.0
14/08:30pm 10.4 3.0 1.8 55 3.8 NW 30 50 16 27 - - 0.0
14/08:00pm 10.5 3.6 2.4 57 3.6 NW 28 48 15 26 - - 0.0
14/07:34pm 10.6 3.8 2.9 59 3.5 NW 28 46 15 25 - - 0.0
14/07:30pm 10.6 3.8 2.9 59 3.5 NW 28 44 15 24 - - 0.0
14/07:00pm 10.6 3.9 3.4 61 3.3 NW 28 50 15 27 - - 0.0
14/06:58pm 10.6 3.9 3.4 61 3.3 NW 28 50 15 27 - - 0.0
14/06:30pm 10.4 4.1 3.7 63 3.1 NW 26 44 14 24 - - 0.0
14/06:00pm 10.4 4.9 4.1 65 2.9 NW 22 46 12 25 - - 0.0
14/05:30pm 10.9 5.4 4.1 63 3.2 NW 22 41 12 22 - - 0.0

Latest Capital City Observations: Canberra | Sydney | Melbourne | Brisbane | Adelaide | Perth | Hobart | Darwin

Other Formats:

Comma delimited format used in spreadsheet applications
http://www.bom.gov.au/fwo/IDS60901/IDS60901.95678.axf

JavaScript Object Notation format (JSON) in row-major order
http://www.bom.gov.au/fwo/IDS60901/IDS60901.95678.json